DLH21W EDDM-EDDH
Flight info
| Callsign | DLH21W |
|---|---|
| Flight time | 0h 58m |
| Altitude | 36000 |
| Route | INPUD2N/26R INPUD Y102 UPALA M726 NARUS DCT ABGUS DCT DIRBO/N0416F230 T902 RARUP RARUP6A |
| Aircraft | A320/M-SDE3FGHIRWY/LB1 |
Departure
| Time | 2026-05-05 18:44 |
|---|---|
| Airport | Munich Airport (EDDM) |
Arrival
| Time | 2026-05-05 19:42 |
|---|---|
| Airport | Hamburg Helmut Schmidt Airport (EDDH) |
| Time | Latitude | Longitude | Altitude | Speed | Heading |
|---|---|---|---|---|---|
| 2026-05-05 18:13 | 48.35498 | 11.79298 | 1486 ft | 0 kts | 263° |
| 2026-05-05 18:32 | 48.35500 | 11.79323 | 1455 ft | 5 kts | 262° |
| 2026-05-05 18:33 | 48.35505 | 11.79371 | 1471 ft | 5 kts | 261° |
| 2026-05-05 18:33 | 48.35509 | 11.79417 | 1476 ft | 3 kts | 269° |
| 2026-05-05 18:33 | 48.35509 | 11.79436 | 1479 ft | 2 kts | 307° |
| 2026-05-05 18:33 | 48.35500 | 11.79446 | 1473 ft | 2 kts | 350° |
| 2026-05-05 18:34 | 48.35492 | 11.79448 | 1475 ft | 0 kts | 351° |
| 2026-05-05 18:35 | 48.35497 | 11.79450 | 1473 ft | 4 kts | 8° |
| 2026-05-05 18:35 | 48.35538 | 11.79510 | 1485 ft | 9 kts | 45° |
| 2026-05-05 18:36 | 48.35553 | 11.79526 | 1478 ft | 0 kts | 20° |
| 2026-05-05 18:36 | 48.35583 | 11.79503 | 1478 ft | 11 kts | 340° |
| 2026-05-05 18:36 | 48.35667 | 11.79485 | 1485 ft | 12 kts | 354° |
| 2026-05-05 18:36 | 48.35755 | 11.79472 | 1479 ft | 13 kts | 354° |
| 2026-05-05 18:37 | 48.35847 | 11.79452 | 1482 ft | 14 kts | 354° |
| 2026-05-05 18:37 | 48.35936 | 11.79497 | 1485 ft | 13 kts | 17° |
| 2026-05-05 18:37 | 48.36015 | 11.79492 | 1479 ft | 6 kts | 354° |
| 2026-05-05 18:37 | 48.36037 | 11.79489 | 1485 ft | 0 kts | 353° |
| 2026-05-05 18:39 | 48.36038 | 11.79488 | 1485 ft | 3 kts | 353° |
| 2026-05-05 18:39 | 48.36109 | 11.79475 | 1478 ft | 16 kts | 353° |
| 2026-05-05 18:39 | 48.36214 | 11.79493 | 1478 ft | 8 kts | 64° |
| 2026-05-05 18:39 | 48.36222 | 11.79582 | 1473 ft | 13 kts | 82° |
| 2026-05-05 18:40 | 48.36236 | 11.79760 | 1473 ft | 21 kts | 86° |
| 2026-05-05 18:40 | 48.36252 | 11.79968 | 1476 ft | 19 kts | 83° |
| 2026-05-05 18:40 | 48.36268 | 11.80153 | 1481 ft | 17 kts | 82° |
| 2026-05-05 18:40 | 48.36279 | 11.80317 | 1485 ft | 15 kts | 83° |
| 2026-05-05 18:41 | 48.36294 | 11.80505 | 1479 ft | 22 kts | 83° |
| 2026-05-05 18:41 | 48.36314 | 11.80765 | 1482 ft | 27 kts | 83° |
| 2026-05-05 18:41 | 48.36335 | 11.81050 | 1485 ft | 28 kts | 84° |
| 2026-05-05 18:41 | 48.36358 | 11.81335 | 1481 ft | 27 kts | 83° |
| 2026-05-05 18:42 | 48.36380 | 11.81622 | 1475 ft | 28 kts | 83° |
| 2026-05-05 18:42 | 48.36399 | 11.81869 | 1485 ft | 17 kts | 84° |
| 2026-05-05 18:42 | 48.36431 | 11.81997 | 1483 ft | 13 kts | 23° |
| 2026-05-05 18:42 | 48.36517 | 11.81990 | 1473 ft | 13 kts | 353° |
| 2026-05-05 18:43 | 48.36606 | 11.81972 | 1485 ft | 13 kts | 350° |
| 2026-05-05 18:43 | 48.36666 | 11.81844 | 1480 ft | 28 kts | 270° |
| 2026-05-05 18:43 | 48.36616 | 11.81184 | 1485 ft | 96 kts | 263° |
| 2026-05-05 18:43 | 48.36518 | 11.79903 | 1482 ft | 149 kts | 263° |
| 2026-05-05 18:44 | 48.36389 | 11.78189 | 1745 ft | 169 kts | 265° |
| 2026-05-05 18:44 | 48.36268 | 11.76494 | 2529 ft | 161 kts | 265° |
| 2026-05-05 18:44 | 48.36124 | 11.74737 | 2974 ft | 179 kts | 265° |
| 2026-05-05 18:44 | 48.35982 | 11.72754 | 3240 ft | 202 kts | 266° |
| 2026-05-05 18:45 | 48.35824 | 11.70541 | 3682 ft | 219 kts | 264° |
| 2026-05-05 18:45 | 48.35733 | 11.68247 | 4490 ft | 222 kts | 278° |
| 2026-05-05 18:45 | 48.36437 | 11.66187 | 5170 ft | 232 kts | 315° |
| 2026-05-05 18:45 | 48.37936 | 11.64973 | 5539 ft | 261 kts | 339° |
| 2026-05-05 18:46 | 48.39750 | 11.64313 | 6204 ft | 273 kts | 347° |
| 2026-05-05 18:46 | 48.41660 | 11.63850 | 6676 ft | 281 kts | 349° |
| 2026-05-05 18:46 | 48.43599 | 11.63429 | 6805 ft | 282 kts | 348° |
| 2026-05-05 18:46 | 48.45538 | 11.62985 | 6834 ft | 282 kts | 347° |
| 2026-05-05 18:47 | 48.47470 | 11.62500 | 6836 ft | 281 kts | 347° |
| 2026-05-05 18:47 | 48.49370 | 11.61983 | 6835 ft | 281 kts | 346° |
| 2026-05-05 18:47 | 48.51290 | 11.61436 | 6835 ft | 281 kts | 346° |
| 2026-05-05 18:47 | 48.53237 | 11.60868 | 7347 ft | 286 kts | 345° |
| 2026-05-05 18:48 | 48.55195 | 11.60288 | 8198 ft | 288 kts | 345° |
| 2026-05-05 18:48 | 48.57164 | 11.59636 | 8993 ft | 291 kts | 339° |
| 2026-05-05 18:48 | 48.59074 | 11.58581 | 9766 ft | 294 kts | 335° |
| 2026-05-05 18:48 | 48.61022 | 11.57465 | 10227 ft | 311 kts | 338° |
| 2026-05-05 18:49 | 48.63253 | 11.56993 | 10423 ft | 340 kts | 360° |
| 2026-05-05 18:49 | 48.65696 | 11.57334 | 10577 ft | 365 kts | 4° |
| 2026-05-05 18:49 | 48.68265 | 11.57794 | 10999 ft | 376 kts | 5° |
| 2026-05-05 18:49 | 48.70884 | 11.58264 | 11635 ft | 381 kts | 4° |
| 2026-05-05 18:50 | 48.73527 | 11.58736 | 12307 ft | 385 kts | 5° |
| 2026-05-05 18:50 | 48.76164 | 11.59190 | 12975 ft | 388 kts | 2° |
| 2026-05-05 18:50 | 48.78846 | 11.59009 | 13624 ft | 387 kts | 348° |
| 2026-05-05 18:50 | 48.81515 | 11.58316 | 14226 ft | 391 kts | 348° |
| 2026-05-05 18:51 | 48.84203 | 11.57584 | 14799 ft | 394 kts | 347° |
| 2026-05-05 18:51 | 48.86916 | 11.56826 | 15368 ft | 398 kts | 347° |
| 2026-05-05 18:51 | 48.89655 | 11.56050 | 15919 ft | 402 kts | 347° |
| 2026-05-05 18:51 | 48.92416 | 11.55268 | 16484 ft | 406 kts | 348° |
| 2026-05-05 18:52 | 48.95212 | 11.54482 | 17047 ft | 410 kts | 348° |
| 2026-05-05 18:52 | 48.98017 | 11.53703 | 17605 ft | 414 kts | 348° |
| 2026-05-05 18:52 | 49.00866 | 11.52920 | 18144 ft | 418 kts | 348° |
| 2026-05-05 18:52 | 49.03742 | 11.52130 | 18631 ft | 422 kts | 348° |
| 2026-05-05 18:53 | 49.06601 | 11.51337 | 19104 ft | 425 kts | 348° |
| 2026-05-05 18:53 | 49.09522 | 11.50525 | 19587 ft | 428 kts | 348° |
| 2026-05-05 18:53 | 49.12467 | 11.49705 | 20050 ft | 431 kts | 348° |
| 2026-05-05 18:53 | 49.15427 | 11.48881 | 20505 ft | 434 kts | 348° |
| 2026-05-05 18:54 | 49.18410 | 11.48048 | 20947 ft | 437 kts | 348° |
| 2026-05-05 18:54 | 49.21411 | 11.47205 | 21387 ft | 440 kts | 348° |
| 2026-05-05 18:54 | 49.24437 | 11.46352 | 21813 ft | 443 kts | 349° |
| 2026-05-05 18:54 | 49.27476 | 11.45496 | 22218 ft | 446 kts | 349° |
| 2026-05-05 18:55 | 49.30542 | 11.44630 | 22634 ft | 449 kts | 349° |
| 2026-05-05 18:55 | 49.33620 | 11.43761 | 23026 ft | 452 kts | 349° |
| 2026-05-05 18:55 | 49.36718 | 11.42888 | 23412 ft | 454 kts | 349° |
| 2026-05-05 18:55 | 49.39794 | 11.42018 | 23734 ft | 457 kts | 349° |
| 2026-05-05 18:56 | 49.42923 | 11.41133 | 24057 ft | 459 kts | 349° |
| 2026-05-05 18:56 | 49.46072 | 11.40245 | 24381 ft | 461 kts | 349° |
| 2026-05-05 18:56 | 49.49234 | 11.39357 | 24679 ft | 463 kts | 349° |
| 2026-05-05 18:56 | 49.52412 | 11.38465 | 24982 ft | 465 kts | 349° |
| 2026-05-05 18:57 | 49.55607 | 11.37562 | 25271 ft | 468 kts | 349° |
| 2026-05-05 18:57 | 49.58815 | 11.36644 | 25562 ft | 470 kts | 349° |
| 2026-05-05 18:57 | 49.62030 | 11.35719 | 25853 ft | 472 kts | 349° |
| 2026-05-05 18:57 | 49.65262 | 11.34794 | 26129 ft | 474 kts | 349° |
| 2026-05-05 18:58 | 49.68512 | 11.33870 | 26388 ft | 476 kts | 349° |
| 2026-05-05 18:58 | 49.71771 | 11.32943 | 26653 ft | 477 kts | 349° |
| 2026-05-05 18:58 | 49.75048 | 11.32007 | 26907 ft | 479 kts | 349° |
| 2026-05-05 18:58 | 49.78285 | 11.31080 | 27135 ft | 481 kts | 349° |
| 2026-05-05 18:59 | 49.81585 | 11.30131 | 27372 ft | 483 kts | 349° |
| 2026-05-05 18:59 | 49.84891 | 11.29180 | 27616 ft | 484 kts | 349° |
| 2026-05-05 18:59 | 49.88206 | 11.28225 | 27845 ft | 486 kts | 349° |
| 2026-05-05 18:59 | 49.91535 | 11.27260 | 28114 ft | 486 kts | 349° |
| 2026-05-05 19:00 | 49.94854 | 11.26300 | 28440 ft | 485 kts | 350° |
| 2026-05-05 19:00 | 49.98169 | 11.25345 | 28764 ft | 484 kts | 350° |
| 2026-05-05 19:00 | 50.01479 | 11.24390 | 29081 ft | 484 kts | 350° |
| 2026-05-05 19:00 | 50.04789 | 11.23434 | 29391 ft | 483 kts | 350° |
| 2026-05-05 19:01 | 50.08111 | 11.22738 | 29716 ft | 482 kts | 357° |
| 2026-05-05 19:01 | 50.11409 | 11.22652 | 30011 ft | 480 kts | 1° |
| 2026-05-05 19:01 | 50.14747 | 11.22663 | 30308 ft | 479 kts | 1° |
| 2026-05-05 19:01 | 50.18076 | 11.22683 | 30593 ft | 478 kts | 1° |
| 2026-05-05 19:02 | 50.21393 | 11.22710 | 30879 ft | 477 kts | 1° |
| 2026-05-05 19:02 | 50.24707 | 11.22736 | 31175 ft | 475 kts | 1° |
| 2026-05-05 19:02 | 50.28013 | 11.22754 | 31469 ft | 474 kts | 1° |
| 2026-05-05 19:02 | 50.31308 | 11.22768 | 31760 ft | 474 kts | 1° |
| 2026-05-05 19:03 | 50.34600 | 11.22786 | 32029 ft | 473 kts | 1° |
| 2026-05-05 19:03 | 50.37884 | 11.22541 | 32304 ft | 473 kts | 355° |
| 2026-05-05 19:03 | 50.41161 | 11.22058 | 32566 ft | 472 kts | 355° |
| 2026-05-05 19:03 | 50.44430 | 11.21567 | 32826 ft | 472 kts | 355° |
| 2026-05-05 19:04 | 50.47700 | 11.21069 | 33090 ft | 472 kts | 355° |
| 2026-05-05 19:04 | 50.50920 | 11.20579 | 33351 ft | 472 kts | 355° |
| 2026-05-05 19:04 | 50.54190 | 11.20084 | 33640 ft | 471 kts | 355° |
| 2026-05-05 19:04 | 50.57452 | 11.19589 | 33914 ft | 471 kts | 354° |
| 2026-05-05 19:05 | 50.60712 | 11.19096 | 34138 ft | 471 kts | 354° |
| 2026-05-05 19:05 | 50.63977 | 11.18600 | 34322 ft | 472 kts | 354° |
| 2026-05-05 19:05 | 50.67250 | 11.18100 | 34506 ft | 473 kts | 354° |
| 2026-05-05 19:05 | 50.70527 | 11.17657 | 34687 ft | 473 kts | 355° |
| 2026-05-05 19:06 | 50.73820 | 11.17290 | 34880 ft | 474 kts | 356° |
| 2026-05-05 19:06 | 50.77114 | 11.16974 | 35061 ft | 475 kts | 356° |
| 2026-05-05 19:06 | 50.80372 | 11.16683 | 35232 ft | 476 kts | 356° |
| 2026-05-05 19:06 | 50.83663 | 11.16388 | 35407 ft | 476 kts | 355° |
| 2026-05-05 19:07 | 50.86964 | 11.16073 | 35583 ft | 476 kts | 355° |
| 2026-05-05 19:07 | 50.89154 | 11.15851 | 35731 ft | 476 kts | 355° |
| 2026-05-05 19:07 | 50.96910 | 11.15019 | 35811 ft | 480 kts | 354° |
| 2026-05-05 19:08 | 51.03582 | 11.14292 | 35809 ft | 481 kts | 354° |
| 2026-05-05 19:08 | 51.10216 | 11.13592 | 35815 ft | 481 kts | 354° |
| 2026-05-05 19:09 | 51.16907 | 11.12898 | 35814 ft | 482 kts | 354° |
| 2026-05-05 19:09 | 51.23592 | 11.12183 | 35819 ft | 482 kts | 354° |
| 2026-05-05 19:10 | 51.30282 | 11.11461 | 35827 ft | 482 kts | 354° |
| 2026-05-05 19:10 | 51.36975 | 11.10739 | 35832 ft | 482 kts | 354° |
| 2026-05-05 19:11 | 51.43672 | 11.10009 | 35838 ft | 482 kts | 354° |
| 2026-05-05 19:11 | 51.50327 | 11.09302 | 35847 ft | 483 kts | 354° |
| 2026-05-05 19:12 | 51.57030 | 11.08577 | 35854 ft | 482 kts | 353° |
| 2026-05-05 19:12 | 51.63735 | 11.07854 | 35857 ft | 482 kts | 353° |
| 2026-05-05 19:13 | 51.69822 | 11.07196 | 35861 ft | 482 kts | 353° |
| 2026-05-05 19:13 | 51.76507 | 11.06461 | 35865 ft | 481 kts | 353° |
| 2026-05-05 19:14 | 51.83191 | 11.05731 | 35866 ft | 481 kts | 353° |
| 2026-05-05 19:14 | 51.89854 | 11.04878 | 35867 ft | 479 kts | 351° |
| 2026-05-05 19:15 | 51.96458 | 11.03496 | 35874 ft | 478 kts | 348° |
| 2026-05-05 19:15 | 52.02985 | 11.01910 | 35873 ft | 477 kts | 348° |
| 2026-05-05 19:16 | 52.09556 | 11.00411 | 35880 ft | 477 kts | 349° |
| 2026-05-05 19:16 | 52.16134 | 10.99023 | 35881 ft | 476 kts | 349° |
| 2026-05-05 19:17 | 52.22701 | 10.97650 | 35886 ft | 475 kts | 349° |
| 2026-05-05 19:17 | 52.29212 | 10.96259 | 35891 ft | 475 kts | 349° |
| 2026-05-05 19:18 | 52.35755 | 10.94840 | 35893 ft | 474 kts | 348° |
| 2026-05-05 19:18 | 52.42287 | 10.93417 | 35890 ft | 473 kts | 348° |
| 2026-05-05 19:19 | 52.45540 | 10.92710 | 35596 ft | 468 kts | 348° |
| 2026-05-05 19:19 | 52.48768 | 10.92008 | 34387 ft | 469 kts | 348° |
| 2026-05-05 19:19 | 52.52013 | 10.91298 | 33066 ft | 472 kts | 348° |
| 2026-05-05 19:19 | 52.55200 | 10.90603 | 32467 ft | 456 kts | 348° |
| 2026-05-05 19:20 | 52.58313 | 10.89926 | 31911 ft | 444 kts | 348° |
| 2026-05-05 19:20 | 52.61336 | 10.89267 | 31730 ft | 433 kts | 348° |
| 2026-05-05 19:20 | 52.64271 | 10.88619 | 31199 ft | 432 kts | 348° |
| 2026-05-05 19:20 | 52.67228 | 10.87967 | 30881 ft | 425 kts | 348° |
| 2026-05-05 19:21 | 52.70137 | 10.87326 | 30522 ft | 419 kts | 348° |
| 2026-05-05 19:21 | 52.73016 | 10.86693 | 30174 ft | 418 kts | 348° |
| 2026-05-05 19:21 | 52.76003 | 10.86018 | 29315 ft | 449 kts | 348° |
| 2026-05-05 19:21 | 52.79183 | 10.85287 | 28440 ft | 471 kts | 348° |
| 2026-05-05 19:22 | 52.82462 | 10.84546 | 27503 ft | 478 kts | 349° |
| 2026-05-05 19:22 | 52.85753 | 10.83833 | 26595 ft | 476 kts | 349° |
| 2026-05-05 19:22 | 52.89036 | 10.83164 | 25718 ft | 474 kts | 350° |
| 2026-05-05 19:22 | 52.92306 | 10.82525 | 24895 ft | 472 kts | 350° |
| 2026-05-05 19:23 | 52.95504 | 10.81907 | 24196 ft | 467 kts | 350° |
| 2026-05-05 19:23 | 52.98716 | 10.81278 | 23500 ft | 463 kts | 350° |
| 2026-05-05 19:23 | 53.01896 | 10.80644 | 22691 ft | 459 kts | 351° |
| 2026-05-05 19:23 | 53.05044 | 10.80007 | 21893 ft | 455 kts | 351° |
| 2026-05-05 19:24 | 53.08179 | 10.79363 | 21117 ft | 452 kts | 351° |
| 2026-05-05 19:24 | 53.11291 | 10.78717 | 20324 ft | 450 kts | 351° |
| 2026-05-05 19:24 | 53.14390 | 10.78071 | 19540 ft | 448 kts | 351° |
| 2026-05-05 19:24 | 53.17475 | 10.77425 | 18780 ft | 445 kts | 352° |
| 2026-05-05 19:25 | 53.20541 | 10.76785 | 18011 ft | 443 kts | 352° |
| 2026-05-05 19:25 | 53.23597 | 10.76151 | 17153 ft | 441 kts | 352° |
| 2026-05-05 19:25 | 53.26634 | 10.75527 | 16347 ft | 437 kts | 352° |
| 2026-05-05 19:25 | 53.29636 | 10.74913 | 15585 ft | 433 kts | 352° |
| 2026-05-05 19:26 | 53.32536 | 10.74315 | 14851 ft | 417 kts | 352° |
| 2026-05-05 19:26 | 53.35357 | 10.73728 | 14133 ft | 400 kts | 352° |
| 2026-05-05 19:26 | 53.38070 | 10.73161 | 13387 ft | 386 kts | 352° |
| 2026-05-05 19:26 | 53.40689 | 10.72616 | 12595 ft | 373 kts | 352° |
| 2026-05-05 19:27 | 53.43241 | 10.72086 | 11838 ft | 370 kts | 351° |
| 2026-05-05 19:27 | 53.45784 | 10.71552 | 11319 ft | 366 kts | 351° |
| 2026-05-05 19:27 | 53.48293 | 10.71027 | 10961 ft | 358 kts | 351° |
| 2026-05-05 19:27 | 53.50716 | 10.70525 | 10892 ft | 345 kts | 351° |
| 2026-05-05 19:28 | 53.53048 | 10.69998 | 10908 ft | 343 kts | 346° |
| 2026-05-05 19:28 | 53.55257 | 10.68473 | 10914 ft | 338 kts | 323° |
| 2026-05-05 19:28 | 53.56878 | 10.65742 | 10910 ft | 326 kts | 301° |
| 2026-05-05 19:28 | 53.57697 | 10.62257 | 10913 ft | 320 kts | 277° |
| 2026-05-05 19:29 | 53.57658 | 10.58626 | 10630 ft | 314 kts | 258° |
| 2026-05-05 19:29 | 53.57149 | 10.55091 | 10392 ft | 305 kts | 255° |
| 2026-05-05 19:29 | 53.56621 | 10.51749 | 10189 ft | 287 kts | 255° |
| 2026-05-05 19:29 | 53.56113 | 10.48546 | 9875 ft | 281 kts | 255° |
| 2026-05-05 19:30 | 53.55611 | 10.45393 | 9548 ft | 278 kts | 255° |
| 2026-05-05 19:30 | 53.55111 | 10.42265 | 9163 ft | 276 kts | 255° |
| 2026-05-05 19:30 | 53.54612 | 10.39154 | 8772 ft | 275 kts | 255° |
| 2026-05-05 19:30 | 53.54114 | 10.36054 | 8377 ft | 274 kts | 255° |
| 2026-05-05 19:31 | 53.53613 | 10.32965 | 8124 ft | 274 kts | 254° |
| 2026-05-05 19:31 | 53.53113 | 10.29878 | 7868 ft | 273 kts | 255° |
| 2026-05-05 19:31 | 53.52618 | 10.26840 | 7615 ft | 273 kts | 255° |
| 2026-05-05 19:31 | 53.52116 | 10.23769 | 7364 ft | 273 kts | 255° |
| 2026-05-05 19:32 | 53.51612 | 10.20695 | 7118 ft | 273 kts | 254° |
| 2026-05-05 19:32 | 53.51108 | 10.17623 | 6868 ft | 272 kts | 254° |
| 2026-05-05 19:32 | 53.50611 | 10.14610 | 6616 ft | 264 kts | 254° |
| 2026-05-05 19:32 | 53.50126 | 10.11673 | 6379 ft | 258 kts | 254° |
| 2026-05-05 19:33 | 53.49650 | 10.08810 | 6125 ft | 251 kts | 254° |
| 2026-05-05 19:33 | 53.49187 | 10.06022 | 5853 ft | 245 kts | 254° |
| 2026-05-05 19:33 | 53.48731 | 10.03288 | 5609 ft | 242 kts | 254° |
| 2026-05-05 19:33 | 53.48280 | 10.00577 | 5357 ft | 241 kts | 254° |
| 2026-05-05 19:34 | 53.47835 | 9.97904 | 5102 ft | 241 kts | 254° |
| 2026-05-05 19:34 | 53.47386 | 9.95193 | 4849 ft | 241 kts | 254° |
| 2026-05-05 19:34 | 53.46936 | 9.92484 | 4601 ft | 241 kts | 254° |
| 2026-05-05 19:35 | 53.46029 | 9.87068 | 4078 ft | 241 kts | 254° |
| 2026-05-05 19:35 | 53.45571 | 9.84364 | 3822 ft | 241 kts | 254° |
| 2026-05-05 19:35 | 53.45113 | 9.81669 | 3570 ft | 240 kts | 255° |
| 2026-05-05 19:35 | 53.44651 | 9.78979 | 3313 ft | 240 kts | 254° |
| 2026-05-05 19:36 | 53.44258 | 9.76258 | 3093 ft | 239 kts | 269° |
| 2026-05-05 19:36 | 53.44591 | 9.73593 | 3030 ft | 234 kts | 303° |
| 2026-05-05 19:36 | 53.45701 | 9.71702 | 3029 ft | 227 kts | 336° |
| 2026-05-05 19:36 | 53.47181 | 9.71145 | 3036 ft | 221 kts | 5° |
| 2026-05-05 19:37 | 53.48674 | 9.71606 | 3036 ft | 218 kts | 23° |
| 2026-05-05 19:37 | 53.49988 | 9.72826 | 3033 ft | 216 kts | 41° |
| 2026-05-05 19:37 | 53.51001 | 9.74606 | 3035 ft | 204 kts | 51° |
| 2026-05-05 19:37 | 53.51898 | 9.76402 | 3033 ft | 198 kts | 51° |
| 2026-05-05 19:38 | 53.52783 | 9.78175 | 2893 ft | 197 kts | 51° |
| 2026-05-05 19:38 | 53.53658 | 9.79929 | 2668 ft | 195 kts | 51° |
| 2026-05-05 19:38 | 53.54522 | 9.81664 | 2416 ft | 192 kts | 51° |
| 2026-05-05 19:38 | 53.55370 | 9.83367 | 2175 ft | 184 kts | 50° |
| 2026-05-05 19:39 | 53.56159 | 9.84953 | 1919 ft | 171 kts | 51° |
| 2026-05-05 19:39 | 53.56890 | 9.86421 | 1687 ft | 155 kts | 51° |
| 2026-05-05 19:39 | 53.57536 | 9.87721 | 1489 ft | 141 kts | 51° |
| 2026-05-05 19:39 | 53.58150 | 9.88958 | 1295 ft | 135 kts | 51° |
| 2026-05-05 19:40 | 53.58750 | 9.90166 | 1109 ft | 134 kts | 51° |
| 2026-05-05 19:40 | 53.59343 | 9.91362 | 920 ft | 133 kts | 51° |
| 2026-05-05 19:40 | 53.59949 | 9.92589 | 732 ft | 139 kts | 51° |
| 2026-05-05 19:40 | 53.60553 | 9.93826 | 513 ft | 134 kts | 50° |
| 2026-05-05 19:41 | 53.61146 | 9.95018 | 331 ft | 130 kts | 50° |
| 2026-05-05 19:41 | 53.61734 | 9.96173 | 165 ft | 130 kts | 51° |
| 2026-05-05 19:41 | 53.62302 | 9.97338 | 42 ft | 128 kts | 50° |
| 2026-05-05 19:41 | 53.62787 | 9.98316 | 43 ft | 90 kts | 50° |
| 2026-05-05 19:42 | 53.63113 | 9.98977 | 46 ft | 63 kts | 51° |
| 2026-05-05 19:42 | 53.63288 | 9.99399 | 44 ft | 31 kts | 77° |
| 2026-05-05 19:42 | 53.63285 | 9.99584 | 48 ft | 10 kts | 98° |
| 2026-05-05 19:42 | 53.63280 | 9.99639 | 48 ft | 0 kts | 98° |
| 2026-05-05 19:44 | 53.63275 | 9.99709 | 48 ft | 14 kts | 92° |
| 2026-05-05 19:44 | 53.63329 | 9.99862 | 48 ft | 16 kts | 49° |
| 2026-05-05 19:44 | 53.63407 | 10.00017 | 48 ft | 18 kts | 49° |
| 2026-05-05 19:44 | 53.63399 | 10.00194 | 48 ft | 15 kts | 126° |
| 2026-05-05 19:45 | 53.63373 | 10.00245 | 48 ft | 5 kts | 109° |
| 2026-05-05 19:45 | 53.63373 | 10.00341 | 48 ft | 8 kts | 86° |
| 2026-05-05 19:45 | 53.63373 | 10.00347 | 48 ft | 0 kts | 86° |